Time;durP1;ratioP1;P1;durP2;ratioP2;P2;SDS_P1;SDS_P2;PMS_P1;PMS_P2;Temp;Humidity;BMP_temperature;BMP_pressure;BME280_temperature;BME280_humidity;BME280_pressure;Samples;Min_cycle;Max_cycle;Signal;HPM_P1;HPM_P2
2022/01/21 00:01:23;;;;;;;;;;;5.30;78.40;;;;;;4974565;28;19918;-63
2022/01/21 00:03:49;;;;;;;;;;;5.20;78.70;;;;;;4974577;28;20262;-67
2022/01/21 00:06:14;;;;;;;;;;;5.20;78.50;;;;;;4974401;28;20053;-62
2022/01/21 00:08:41;;;;;;;;;;;5.00;79.30;;;;;;4974418;28;19918;-66
2022/01/21 00:11:07;;;;;;;;;;;4.90;79.60;;;;;;4974647;28;19914;-63
2022/01/21 00:13:34;;;;;;;;;;;5.00;79.20;;;;;;4974510;28;19935;-65
2022/01/21 00:16:10;;;;;;;;;;;4.90;79.30;;;;;;4974582;28;19952;-72
2022/01/21 00:18:37;;;;;;;;;;;4.90;79.70;;;;;;4974204;28;20318;-71
2022/01/21 00:32:00;;;;;;;;;;;4.70;80.00;;;;;;4974260;28;19916;-72
2022/01/21 00:34:26;;;;;;;;;;;4.90;79.80;;;;;;4974300;28;20005;-69
2022/01/21 00:36:52;;;;;;;;;;;4.70;79.30;;;;;;4974383;28;20013;-68
2022/01/21 00:39:22;;;;;;;;;;;4.60;79.80;;;;;;4974193;28;20080;-69
2022/01/21 00:41:59;;;;;;;;;;;4.40;80.50;;;;;;4974078;28;20500;-64
2022/01/21 00:44:24;;;;;;;;;;;4.40;81.30;;;;;;4974155;28;19910;-64
2022/01/21 00:46:50;;;;;;;;;;;4.50;81.00;;;;;;4976529;28;19933;-63
2022/01/21 00:49:16;;;;;;;;;;;4.70;80.10;;;;;;4978057;28;19917;-71
2022/01/21 00:51:42;;;;;;;;;;;4.70;79.20;;;;;;4978143;28;19914;-70
2022/01/21 00:54:07;;;;;;;;;;;4.90;78.50;;;;;;4977967;28;19911;-71
2022/01/21 00:56:33;;;;;;;;;;;5.00;78.20;;;;;;4977864;28;20024;-70
2022/01/21 00:58:58;;;;;;;;;;;5.50;74.30;;;;;;4977851;28;19914;-70
2022/01/21 01:01:24;;;;;;;;;;;5.80;70.30;;;;;;4977912;28;19941;-68
2022/01/21 01:03:50;;;;;;;;;;;6.10;68.50;;;;;;4977916;28;20005;-70
2022/01/21 01:06:15;;;;;;;;;;;6.20;68.60;;;;;;4977642;28;19944;-69
2022/01/21 01:08:41;;;;;;;;;;;6.20;68.60;;;;;;4977634;28;19921;-71
2022/01/21 01:21:43;;;;;;;;;;;6.30;67.40;;;;;;4980125;28;20076;-69
2022/01/21 01:29:19;;;;;;;;;;;6.30;67.80;;;;;;4977688;28;20274;-70
2022/01/21 01:31:45;;;;;;;;;;;6.30;67.70;;;;;;4977438;28;19911;-70
2022/01/21 01:34:11;;;;;;;;;;;6.40;66.20;;;;;;4976351;28;19917;-70
2022/01/21 01:36:37;;;;;;;;;;;6.40;66.20;;;;;;4977442;28;19910;-69
2022/01/21 01:41:43;;;;;;;;;;;6.40;66.50;;;;;;4977153;28;19978;-69
2022/01/21 01:49:38;;;;;;;;;;;6.30;65.90;;;;;;4977101;28;19917;-69
2022/01/21 01:52:05;;;;;;;;;;;6.30;65.40;;;;;;4976995;28;19917;-71
2022/01/21 01:54:31;;;;;;;;;;;6.40;65.80;;;;;;4976861;28;19910;-69
2022/01/21 01:56:57;;;;;;;;;;;6.30;65.90;;;;;;4976213;28;19945;-69
2022/01/21 01:59:23;;;;;;;;;;;6.20;66.20;;;;;;4976132;28;20013;-67
2022/01/21 02:01:57;;;;;;;;;;;6.20;66.40;;;;;;4976653;28;19910;-68
2022/01/21 02:04:23;;;;;;;;;;;6.20;66.60;;;;;;4976867;28;19925;-68
2022/01/21 02:06:48;;;;;;;;;;;6.20;65.60;;;;;;4976359;28;19930;-70
2022/01/21 02:09:14;;;;;;;;;;;6.30;66.20;;;;;;4976564;28;19910;-70
2022/01/21 02:11:40;;;;;;;;;;;6.10;65.90;;;;;;4976449;28;19933;-70
2022/01/21 02:14:09;;;;;;;;;;;6.10;66.40;;;;;;4976708;28;19910;-69
2022/01/21 02:16:54;;;;;;;;;;;6.20;66.40;;;;;;4976617;28;20358;-70
2022/01/21 02:22:04;;;;;;;;;;;6.10;66.50;;;;;;4976269;28;20441;-70
2022/01/21 02:24:45;;;;;;;;;;;6.10;66.60;;;;;;4976476;28;19949;-72
2022/01/21 02:27:10;;;;;;;;;;;5.90;67.20;;;;;;4976172;28;19910;-69
2022/01/21 02:29:45;;;;;;;;;;;6.00;67.30;;;;;;4976342;28;19965;-70
2022/01/21 02:32:10;;;;;;;;;;;5.90;67.60;;;;;;4975941;28;20375;-70
2022/01/21 02:34:36;;;;;;;;;;;5.90;67.70;;;;;;4976163;28;19911;-67
2022/01/21 02:37:02;;;;;;;;;;;5.70;68.60;;;;;;4976106;28;19914;-68
2022/01/21 02:39:28;;;;;;;;;;;5.60;69.40;;;;;;4976355;28;19925;-67
2022/01/21 02:41:55;;;;;;;;;;;5.60;69.30;;;;;;4975984;28;19917;-70
2022/01/21 02:44:20;;;;;;;;;;;5.60;69.60;;;;;;4976120;28;19910;-68
2022/01/21 02:46:47;;;;;;;;;;;5.70;69.60;;;;;;4974621;28;20425;-69
2022/01/21 02:49:13;;;;;;;;;;;5.60;69.40;;;;;;4975904;28;19957;-69
2022/01/21 02:51:39;;;;;;;;;;;5.70;69.50;;;;;;4975691;28;19910;-69
2022/01/21 02:54:05;;;;;;;;;;;5.60;69.90;;;;;;4975924;28;19910;-70
2022/01/21 02:56:34;;;;;;;;;;;5.70;69.30;;;;;;4975742;28;19933;-69
2022/01/21 02:59:00;;;;;;;;;;;5.80;69.00;;;;;;4975686;28;19920;-71
2022/01/21 03:01:26;;;;;;;;;;;5.90;68.80;;;;;;4975495;28;20358;-70
2022/01/21 03:03:52;;;;;;;;;;;5.90;69.20;;;;;;4975603;28;19921;-70
2022/01/21 03:06:19;;;;;;;;;;;6.00;69.10;;;;;;4975493;28;20275;-71
2022/01/21 03:08:46;;;;;;;;;;;6.00;68.60;;;;;;4975052;28;19942;-70
2022/01/21 03:11:12;;;;;;;;;;;5.90;69.00;;;;;;4975645;28;19914;-71
2022/01/21 03:13:41;;;;;;;;;;;6.00;68.90;;;;;;4975802;28;19911;-71
2022/01/21 03:16:07;;;;;;;;;;;5.90;68.80;;;;;;4976986;28;19969;-70
2022/01/21 03:18:32;;;;;;;;;;;6.00;68.70;;;;;;4975233;28;19937;-69
2022/01/21 03:20:58;;;;;;;;;;;6.00;68.00;;;;;;4975294;28;19914;-70
2022/01/21 03:23:26;;;;;;;;;;;6.00;67.80;;;;;;4975309;28;19910;-69
2022/01/21 03:25:51;;;;;;;;;;;6.00;67.80;;;;;;4975266;28;19976;-69
2022/01/21 03:28:17;;;;;;;;;;;6.00;68.20;;;;;;4974947;28;20378;-71
2022/01/21 03:30:43;;;;;;;;;;;6.00;67.30;;;;;;4975147;28;19957;-69
2022/01/21 03:33:08;;;;;;;;;;;6.00;67.70;;;;;;4975009;28;19915;-71
2022/01/21 03:35:34;;;;;;;;;;;6.00;67.20;;;;;;4975114;28;20000;-69
2022/01/21 03:37:59;;;;;;;;;;;6.10;67.60;;;;;;4975234;28;19910;-70
2022/01/21 03:40:25;;;;;;;;;;;6.10;67.50;;;;;;4974822;28;19918;-67
2022/01/21 03:42:51;;;;;;;;;;;6.10;67.50;;;;;;4974858;28;19910;-70
2022/01/21 03:45:16;;;;;;;;;;;6.10;67.40;;;;;;4974725;28;19926;-69
2022/01/21 03:47:42;;;;;;;;;;;5.90;67.00;;;;;;4974959;28;19968;-70
2022/01/21 03:50:21;;;;;;;;;;;5.90;67.50;;;;;;4974964;28;19910;-69
2022/01/21 03:52:47;;;;;;;;;;;5.90;68.00;;;;;;4974825;28;20449;-69
2022/01/21 03:55:13;;;;;;;;;;;5.90;68.10;;;;;;4974715;28;19949;-68
2022/01/21 03:57:38;;;;;;;;;;;5.90;67.40;;;;;;4974632;28;20053;-71
2022/01/21 04:00:08;;;;;;;;;;;5.80;67.90;;;;;;4974667;28;20388;-69
2022/01/21 04:02:34;;;;;;;;;;;5.90;68.00;;;;;;4974731;28;19997;-69
2022/01/21 04:05:00;;;;;;;;;;;5.90;67.70;;;;;;4974609;28;20331;-70
2022/01/21 04:07:25;;;;;;;;;;;5.90;67.70;;;;;;4973506;28;19968;-69
2022/01/21 04:09:51;;;;;;;;;;;5.80;67.10;;;;;;4974463;28;19914;-71
2022/01/21 04:12:16;;;;;;;;;;;5.90;67.40;;;;;;4974438;28;19989;-72
2022/01/21 04:14:42;;;;;;;;;;;5.80;67.50;;;;;;4989353;28;20006;-68
2022/01/21 04:17:07;;;;;;;;;;;5.80;67.90;;;;;;4974670;28;19917;-70
2022/01/21 04:19:34;;;;;;;;;;;5.80;67.50;;;;;;4974432;28;19921;-70
2022/01/21 04:21:59;;;;;;;;;;;5.90;66.90;;;;;;4976981;28;19918;-68
2022/01/21 04:24:25;;;;;;;;;;;6.00;66.60;;;;;;4978615;28;20013;-63
2022/01/21 04:26:50;;;;;;;;;;;6.00;66.20;;;;;;4978568;28;20306;-61
2022/01/21 04:29:16;;;;;;;;;;;6.00;66.30;;;;;;4978318;28;19933;-62
2022/01/21 04:31:42;;;;;;;;;;;6.00;66.40;;;;;;4978333;28;20388;-63
2022/01/21 04:34:07;;;;;;;;;;;5.90;66.10;;;;;;4978404;28;19942;-62
2022/01/21 04:36:34;;;;;;;;;;;6.00;66.30;;;;;;4978604;28;20013;-62
2022/01/21 04:39:02;;;;;;;;;;;6.00;66.00;;;;;;4993170;28;19926;-65
2022/01/21 04:47:28;;;;;;;;;;;5.90;66.30;;;;;;4978250;28;20381;-61
2022/01/21 04:49:28;;;;;;;;;;;5.80;65.90;;;;;;4973909;28;20004;-62
2022/01/21 04:52:03;;;;;;;;;;;5.80;65.50;;;;;;4977946;28;19970;-69
2022/01/21 04:54:30;;;;;;;;;;;5.90;65.80;;;;;;4977876;28;19953;-69
2022/01/21 04:56:55;;;;;;;;;;;5.90;65.20;;;;;;4977879;28;19956;-63
2022/01/21 04:59:21;;;;;;;;;;;5.80;64.60;;;;;;4977929;28;20394;-62
2022/01/21 05:01:46;;;;;;;;;;;5.80;64.90;;;;;;4977621;28;19917;-62
2022/01/21 05:04:12;;;;;;;;;;;5.70;64.80;;;;;;4978068;28;20342;-62
2022/01/21 05:06:38;;;;;;;;;;;5.60;65.20;;;;;;4977452;28;19933;-63
2022/01/21 05:09:05;;;;;;;;;;;5.70;65.50;;;;;;4977800;28;20376;-68
2022/01/21 05:11:35;;;;;;;;;;;5.60;65.40;;;;;;4992628;28;19910;-63
2022/01/21 05:14:13;;;;;;;;;;;5.50;64.70;;;;;;4977498;28;19910;-65
2022/01/21 05:16:45;;;;;;;;;;;5.60;65.60;;;;;;4977414;28;19910;-63
2022/01/21 05:19:17;;;;;;;;;;;5.60;65.30;;;;;;4977539;28;19921;-62
2022/01/21 05:21:49;;;;;;;;;;;5.70;64.00;;;;;;4977416;28;19918;-65
2022/01/21 05:24:16;;;;;;;;;;;5.60;64.30;;;;;;4977295;28;20317;-66
2022/01/21 05:26:52;;;;;;;;;;;5.70;63.70;;;;;;4992460;28;19914;-61
2022/01/21 05:29:18;;;;;;;;;;;5.70;63.10;;;;;;4977055;28;19914;-68
2022/01/21 05:31:43;;;;;;;;;;;5.70;62.30;;;;;;4977101;28;19938;-70
2022/01/21 05:34:09;;;;;;;;;;;5.70;61.80;;;;;;4977183;28;19916;-71
2022/01/21 05:36:40;;;;;;;;;;;5.70;61.30;;;;;;4977500;28;19914;-69
2022/01/21 05:39:06;;;;;;;;;;;5.80;61.10;;;;;;4977100;28;20314;-69
2022/01/21 05:41:32;;;;;;;;;;;5.80;60.90;;;;;;4977040;28;20017;-66
2022/01/21 05:44:04;;;;;;;;;;;5.70;61.20;;;;;;4976916;28;20000;-69
2022/01/21 05:48:55;;;;;;;;;;;5.80;60.40;;;;;;4977322;28;19910;-70
2022/01/21 05:51:21;;;;;;;;;;;5.80;60.40;;;;;;4977904;28;19918;-67
2022/01/21 05:53:46;;;;;;;;;;;5.70;61.50;;;;;;4980077;28;19937;-71
2022/01/21 05:56:13;;;;;;;;;;;5.60;62.00;;;;;;4976893;28;20394;-62
2022/01/21 05:58:38;;;;;;;;;;;5.60;61.30;;;;;;4976706;28;19957;-70
2022/01/21 06:01:04;;;;;;;;;;;5.70;61.50;;;;;;4976718;28;19950;-69
2022/01/21 06:03:33;;;;;;;;;;;5.50;61.80;;;;;;4976989;28;20358;-70
2022/01/21 06:05:58;;;;;;;;;;;5.40;62.10;;;;;;4976378;28;19922;-69
2022/01/21 06:08:24;;;;;;;;;;;5.40;62.40;;;;;;4976795;28;20417;-71
2022/01/21 06:10:50;;;;;;;;;;;5.40;62.50;;;;;;4976382;28;19921;-70
2022/01/21 06:13:17;;;;;;;;;;;5.40;63.10;;;;;;4976498;28;20430;-70
2022/01/21 06:15:44;;;;;;;;;;;5.40;63.20;;;;;;4976633;28;19968;-69
2022/01/21 06:18:10;;;;;;;;;;;5.30;63.20;;;;;;4977206;28;20028;-71
2022/01/21 06:20:35;;;;;;;;;;;5.30;63.50;;;;;;4976478;28;19954;-68
2022/01/21 06:23:01;;;;;;;;;;;5.20;63.90;;;;;;4976211;28;19910;-69
2022/01/21 06:25:26;;;;;;;;;;;5.30;63.10;;;;;;4976484;28;19984;-68
2022/01/21 06:27:52;;;;;;;;;;;5.30;63.00;;;;;;4976313;28;19973;-69
2022/01/21 06:30:18;;;;;;;;;;;5.30;62.20;;;;;;4991219;28;19910;-68
2022/01/21 06:32:43;;;;;;;;;;;5.40;61.30;;;;;;4976287;28;19916;-69
2022/01/21 06:35:10;;;;;;;;;;;5.50;61.50;;;;;;4976312;28;20358;-67
2022/01/21 06:37:35;;;;;;;;;;;5.40;61.80;;;;;;4976410;28;19918;-73
2022/01/21 06:40:01;;;;;;;;;;;5.60;62.00;;;;;;4976023;28;19918;-70
2022/01/21 06:42:29;;;;;;;;;;;5.60;61.70;;;;;;4976020;28;19917;-69
2022/01/21 06:44:54;;;;;;;;;;;5.60;61.20;;;;;;4975710;28;20002;-64
2022/01/21 06:47:20;;;;;;;;;;;5.50;61.40;;;;;;4974605;28;19950;-67
2022/01/21 06:49:46;;;;;;;;;;;5.60;61.20;;;;;;4976364;28;20334;-68
2022/01/21 06:52:12;;;;;;;;;;;5.70;61.30;;;;;;4976147;28;19914;-70
2022/01/21 06:54:38;;;;;;;;;;;5.70;61.50;;;;;;4977756;28;19911;-72
2022/01/21 06:57:04;;;;;;;;;;;5.60;61.90;;;;;;4980131;28;20390;-67
2022/01/21 06:59:29;;;;;;;;;;;5.60;61.70;;;;;;4976763;28;19925;-62
2022/01/21 07:01:55;;;;;;;;;;;5.80;66.60;;;;;;4975511;28;19914;-63
2022/01/21 07:04:20;;;;;;;;;;;6.10;65.40;;;;;;4975739;28;19911;-65
2022/01/21 07:06:46;;;;;;;;;;;6.30;63.40;;;;;;4975346;28;19922;-64
2022/01/21 07:09:12;;;;;;;;;;;6.40;59.80;;;;;;4975724;28;19914;-62
2022/01/21 07:11:38;;;;;;;;;;;6.70;61.30;;;;;;4975664;28;19917;-64
2022/01/21 07:14:03;;;;;;;;;;;6.40;59.00;;;;;;4975627;28;20417;-62
2022/01/21 07:16:29;;;;;;;;;;;6.40;60.00;;;;;;4975745;28;20267;-64
2022/01/21 07:18:54;;;;;;;;;;;6.90;60.90;;;;;;4975280;28;19933;-61
2022/01/21 07:21:20;;;;;;;;;;;7.10;58.80;;;;;;4975340;28;19914;-64
2022/01/21 07:23:46;;;;;;;;;;;7.20;56.00;;;;;;4975344;28;19910;-63
2022/01/21 07:26:13;;;;;;;;;;;6.90;55.80;;;;;;4973795;28;20039;-70
2022/01/21 07:28:38;;;;;;;;;;;6.40;55.20;;;;;;4975195;28;20377;-69
2022/01/21 07:31:04;;;;;;;;;;;6.10;56.30;;;;;;4975108;28;19918;-65
2022/01/21 07:33:29;;;;;;;;;;;5.90;57.00;;;;;;4975257;28;19937;-68
2022/01/21 07:35:55;;;;;;;;;;;5.90;56.50;;;;;;4975246;28;20381;-69
2022/01/21 07:38:21;;;;;;;;;;;5.90;57.30;;;;;;4975060;28;20012;-69
2022/01/21 07:40:46;;;;;;;;;;;5.80;56.00;;;;;;4974272;28;20472;-70
2022/01/21 07:43:12;;;;;;;;;;;5.80;56.00;;;;;;4974861;28;19974;-70
2022/01/21 07:45:37;;;;;;;;;;;6.00;55.90;;;;;;4974373;28;19932;-68
2022/01/21 07:48:04;;;;;;;;;;;6.20;54.80;;;;;;4973134;28;19917;-70
2022/01/21 07:50:29;;;;;;;;;;;6.40;53.60;;;;;;4974295;28;19917;-69
2022/01/21 07:52:55;;;;;;;;;;;6.50;52.90;;;;;;4974100;28;19992;-69
2022/01/21 07:55:20;;;;;;;;;;;6.60;52.70;;;;;;4974793;28;20426;-68
2022/01/21 07:57:46;;;;;;;;;;;6.70;52.60;;;;;;4974010;28;20009;-69
2022/01/21 08:00:13;;;;;;;;;;;6.90;51.50;;;;;;4974129;28;19922;-68
2022/01/21 08:02:38;;;;;;;;;;;6.70;51.20;;;;;;4973957;28;20282;-69
2022/01/21 08:05:05;;;;;;;;;;;6.90;51.50;;;;;;4974089;28;19925;-68
2022/01/21 08:07:31;;;;;;;;;;;7.00;51.40;;;;;;4974613;28;19914;-65
2022/01/21 08:09:56;;;;;;;;;;;7.10;51.60;;;;;;4974615;28;20005;-66
2022/01/21 08:12:22;;;;;;;;;;;7.10;50.40;;;;;;4974855;28;19914;-69
2022/01/21 08:14:47;;;;;;;;;;;7.10;49.50;;;;;;4974866;28;19921;-71
2022/01/21 08:17:13;;;;;;;;;;;7.10;50.20;;;;;;4974680;28;19937;-67
2022/01/21 08:19:40;;;;;;;;;;;7.10;50.20;;;;;;4974920;28;19922;-69
2022/01/21 08:22:05;;;;;;;;;;;7.10;50.90;;;;;;4974610;28;19914;-72
2022/01/21 08:24:31;;;;;;;;;;;7.10;50.20;;;;;;4973741;28;19921;-66
2022/01/21 08:26:57;;;;;;;;;;;7.20;50.20;;;;;;4973947;28;19954;-68
2022/01/21 08:29:22;;;;;;;;;;;7.10;49.70;;;;;;4975158;28;20289;-66
2022/01/21 08:31:48;;;;;;;;;;;7.20;49.70;;;;;;4972339;28;19914;-69
2022/01/21 08:34:14;;;;;;;;;;;7.30;48.60;;;;;;4973446;28;19910;-66
2022/01/21 08:36:40;;;;;;;;;;;7.30;48.40;;;;;;4972334;28;19917;-66
2022/01/21 08:39:05;;;;;;;;;;;7.30;48.00;;;;;;4973022;28;19949;-67
2022/01/21 08:41:31;;;;;;;;;;;7.30;47.50;;;;;;4973075;28;19922;-71
2022/01/21 08:43:57;;;;;;;;;;;7.40;47.90;;;;;;4972021;28;19914;-67
2022/01/21 08:46:23;;;;;;;;;;;7.60;48.00;;;;;;4973025;28;19910;-67
2022/01/21 08:48:48;;;;;;;;;;;7.60;47.30;;;;;;4973339;28;19925;-69
2022/01/21 08:51:21;;;;;;;;;;;7.60;47.10;;;;;;4973675;28;19911;-69
2022/01/21 08:53:47;;;;;;;;;;;7.50;47.10;;;;;;4973316;28;19910;-66
2022/01/21 08:56:13;;;;;;;;;;;7.40;47.40;;;;;;4972944;28;20012;-67
2022/01/21 08:58:39;;;;;;;;;;;7.60;47.60;;;;;;4973091;28;19937;-67
2022/01/21 09:01:05;;;;;;;;;;;7.80;46.60;;;;;;4972792;28;19926;-69
2022/01/21 09:03:31;;;;;;;;;;;7.80;46.00;;;;;;4973013;28;19964;-70
2022/01/21 09:05:57;;;;;;;;;;;7.90;45.80;;;;;;4972595;28;20444;-64
2022/01/21 09:08:23;;;;;;;;;;;7.80;45.90;;;;;;4976030;28;20442;-67
2022/01/21 09:10:49;;;;;;;;;;;7.80;46.00;;;;;;4976341;28;20302;-69
2022/01/21 09:13:15;;;;;;;;;;;7.80;45.90;;;;;;4976503;28;19910;-68
2022/01/21 09:15:40;;;;;;;;;;;7.80;46.60;;;;;;4975564;28;19921;-69
2022/01/21 09:18:06;;;;;;;;;;;7.60;46.10;;;;;;4976313;28;19918;-68
2022/01/21 09:20:33;;;;;;;;;;;7.60;46.20;;;;;;4976307;28;19929;-69
2022/01/21 09:22:59;;;;;;;;;;;7.60;45.40;;;;;;4975444;28;19973;-70
2022/01/21 09:25:24;;;;;;;;;;;7.70;44.70;;;;;;4976492;28;19914;-72
2022/01/21 09:27:50;;;;;;;;;;;7.70;44.70;;;;;;4976345;28;20281;-66
2022/01/21 09:30:17;;;;;;;;;;;7.80;43.90;;;;;;4976709;28;19911;-67
2022/01/21 09:32:42;;;;;;;;;;;7.90;43.60;;;;;;4977276;28;19918;-71
2022/01/21 09:35:09;;;;;;;;;;;8.00;43.10;;;;;;4977309;28;19965;-67
2022/01/21 09:37:34;;;;;;;;;;;8.10;43.20;;;;;;4976783;28;20459;-68
2022/01/21 09:40:00;;;;;;;;;;;8.20;42.60;;;;;;4976440;28;19918;-72
2022/01/21 09:42:25;;;;;;;;;;;8.20;41.80;;;;;;4977065;28;19997;-71
2022/01/21 09:44:51;;;;;;;;;;;8.20;40.50;;;;;;4986187;28;19910;-66
2022/01/21 09:47:19;;;;;;;;;;;8.20;40.90;;;;;;4987897;28;19911;-65
2022/01/21 09:49:45;;;;;;;;;;;8.20;40.40;;;;;;4987558;28;19910;-66
2022/01/21 09:52:11;;;;;;;;;;;8.20;40.10;;;;;;4987305;28;19952;-66
2022/01/21 09:54:38;;;;;;;;;;;8.40;40.10;;;;;;4989405;28;19933;-64
2022/01/21 09:57:05;;;;;;;;;;;8.50;39.70;;;;;;4978454;28;19917;-63
2022/01/21 09:59:36;;;;;;;;;;;8.50;38.80;;;;;;4978988;28;20290;-67
2022/01/21 10:02:04;;;;;;;;;;;8.60;38.70;;;;;;4979139;28;19960;-68
2022/01/21 10:04:31;;;;;;;;;;;8.80;38.70;;;;;;4976929;28;19972;-66
2022/01/21 10:06:57;;;;;;;;;;;8.70;36.60;;;;;;4976538;28;19922;-67
2022/01/21 10:09:24;;;;;;;;;;;8.50;37.00;;;;;;4976718;28;19921;-66
2022/01/21 10:11:51;;;;;;;;;;;8.60;36.70;;;;;;4976058;28;19957;-63
2022/01/21 10:14:20;;;;;;;;;;;8.70;37.40;;;;;;4976725;28;19918;-68
2022/01/21 10:16:46;;;;;;;;;;;9.20;49.60;;;;;;4976607;28;19917;-71
2022/01/21 10:19:11;;;;;;;;;;;9.20;39.00;;;;;;4975345;28;19914;-70
2022/01/21 10:21:39;;;;;;;;;;;9.40;41.70;;;;;;4977015;28;19976;-70
2022/01/21 10:24:11;;;;;;;;;;;9.40;40.20;;;;;;4976459;28;19997;-71
2022/01/21 10:26:47;;;;;;;;;;;9.10;38.60;;;;;;4975458;28;19945;-68
2022/01/21 10:29:13;;;;;;;;;;;9.20;42.30;;;;;;4973732;28;19910;-70
2022/01/21 10:31:50;;;;;;;;;;;9.20;38.90;;;;;;4975950;28;19937;-66
2022/01/21 10:34:22;;;;;;;;;;;9.00;40.30;;;;;;4976325;28;19937;-63
2022/01/21 10:36:54;;;;;;;;;;;9.00;39.90;;;;;;4976311;28;19914;-62
2022/01/21 10:39:29;;;;;;;;;;;9.40;43.80;;;;;;4976058;28;19914;-62
2022/01/21 10:41:59;;;;;;;;;;;9.70;43.40;;;;;;4974175;28;21339;-63
2022/01/21 10:44:27;;;;;;;;;;;9.50;40.70;;;;;;4976419;28;19917;-62
2022/01/21 10:47:07;;;;;;;;;;;9.70;43.60;;;;;;4976224;28;19946;-62
2022/01/21 10:49:33;;;;;;;;;;;9.80;43.40;;;;;;4976100;28;19958;-69
2022/01/21 10:51:59;;;;;;;;;;;9.70;41.30;;;;;;4976004;28;20022;-71
2022/01/21 10:54:26;;;;;;;;;;;8.90;42.20;;;;;;4975107;28;19947;-69
2022/01/21 10:57:07;;;;;;;;;;;8.70;42.20;;;;;;4975361;28;19911;-66
2022/01/21 10:59:46;;;;;;;;;;;8.70;43.50;;;;;;4973675;28;19922;-64
2022/01/21 11:02:12;;;;;;;;;;;8.70;44.20;;;;;;4973416;28;19965;-65
2022/01/21 11:04:44;;;;;;;;;;;8.50;43.10;;;;;;4975145;28;19914;-65
2022/01/21 11:07:13;;;;;;;;;;;8.40;42.70;;;;;;4975224;28;20374;-67
2022/01/21 11:09:39;;;;;;;;;;;8.30;44.00;;;;;;4975993;28;19917;-68
2022/01/21 11:12:08;;;;;;;;;;;8.20;44.10;;;;;;4975684;28;19910;-68
2022/01/21 11:14:34;;;;;;;;;;;8.30;44.20;;;;;;4974407;28;19914;-66
2022/01/21 11:17:15;;;;;;;;;;;8.20;43.80;;;;;;4975420;28;19976;-65
2022/01/21 11:20:00;;;;;;;;;;;8.40;45.10;;;;;;4976833;28;19921;-70
2022/01/21 11:22:25;;;;;;;;;;;8.30;43.10;;;;;;4976808;28;19910;-67
2022/01/21 11:24:51;;;;;;;;;;;8.30;43.30;;;;;;4976631;28;19918;-66
2022/01/21 11:27:17;;;;;;;;;;;8.20;43.20;;;;;;4974282;28;19918;-66
2022/01/21 11:29:44;;;;;;;;;;;8.20;41.60;;;;;;4976174;28;19924;-69
2022/01/21 11:32:10;;;;;;;;;;;8.20;43.30;;;;;;4976267;28;19917;-65
2022/01/21 11:34:36;;;;;;;;;;;8.30;41.60;;;;;;4975728;28;19997;-67
2022/01/21 11:37:02;;;;;;;;;;;8.20;42.90;;;;;;4977048;28;19910;-66
2022/01/21 11:39:29;;;;;;;;;;;8.20;41.90;;;;;;4976422;28;19914;-67
2022/01/21 11:41:56;;;;;;;;;;;8.30;41.20;;;;;;4975821;28;19915;-64
2022/01/21 11:44:25;;;;;;;;;;;8.30;40.00;;;;;;4976024;28;19916;-65
2022/01/21 11:49:36;;;;;;;;;;;8.60;39.60;;;;;;4962908;28;20430;-63
2022/01/21 11:52:08;;;;;;;;;;;8.50;40.80;;;;;;4955918;28;19914;-67
2022/01/21 11:54:35;;;;;;;;;;;8.60;40.40;;;;;;4955768;29;19911;-69
2022/01/21 11:57:04;;;;;;;;;;;8.60;39.80;;;;;;4956006;28;19970;-69
2022/01/21 11:59:42;;;;;;;;;;;8.60;40.00;;;;;;4956071;29;19918;-66
2022/01/21 12:02:14;;;;;;;;;;;8.50;39.20;;;;;;4955931;29;19917;-66
2022/01/21 12:04:40;;;;;;;;;;;8.60;38.80;;;;;;4955905;29;19998;-67
2022/01/21 12:07:25;;;;;;;;;;;8.60;37.40;;;;;;4955857;29;19969;-71
2022/01/21 12:09:55;;;;;;;;;;;8.60;35.80;;;;;;4955826;29;20002;-66
2022/01/21 12:12:22;;;;;;;;;;;8.50;37.50;;;;;;4960062;28;19938;-66
2022/01/21 12:14:53;;;;;;;;;;;8.60;36.30;;;;;;4963080;29;19985;-68
2022/01/21 12:17:50;;;;;;;;;;;8.60;36.70;;;;;;4970092;28;19917;-66
2022/01/21 12:20:15;;;;;;;;;;;8.70;35.60;;;;;;4970781;28;19925;-63
2022/01/21 12:22:41;;;;;;;;;;;8.60;35.80;;;;;;4967420;28;19910;-71
2022/01/21 12:25:08;;;;;;;;;;;8.60;36.10;;;;;;4968047;29;19911;-63
2022/01/21 12:27:35;;;;;;;;;;;8.60;35.90;;;;;;4963700;28;19918;-65
2022/01/21 12:30:23;;;;;;;;;;;8.60;35.20;;;;;;4955637;28;19950;-68
2022/01/21 12:33:01;;;;;;;;;;;8.80;34.50;;;;;;4971691;28;19914;-63
2022/01/21 12:35:27;;;;;;;;;;;8.80;34.00;;;;;;4963298;28;19918;-70
2022/01/21 12:40:53;;;;;;;;;;;8.70;32.90;;;;;;4959934;28;19922;-64
2022/01/21 12:43:38;;;;;;;;;;;8.60;33.10;;;;;;4967790;28;19910;-63
2022/01/21 12:46:05;;;;;;;;;;;8.60;33.20;;;;;;4967870;28;19958;-64
2022/01/21 12:48:34;;;;;;;;;;;8.70;34.30;;;;;;4958971;28;19911;-69
2022/01/21 12:51:13;;;;;;;;;;;8.90;33.40;;;;;;4958954;28;19914;-67
2022/01/21 12:55:54;;;;;;;;;;;8.80;32.90;;;;;;4958638;28;19916;-68
2022/01/21 12:56:24;;;;;;;;;;;8.80;32.50;;;;;;4958911;28;20363;-61
2022/01/21 12:58:50;;;;;;;;;;;8.80;32.90;;;;;;4958424;28;19918;-63
2022/01/21 13:01:15;;;;;;;;;;;8.90;32.20;;;;;;4958771;28;19918;-62
2022/01/21 13:03:50;;;;;;;;;;;9.10;31.90;;;;;;4958739;28;19933;-63
2022/01/21 13:06:23;;;;;;;;;;;9.10;31.90;;;;;;4973364;28;20437;-62
2022/01/21 13:09:05;;;;;;;;;;;9.20;31.50;;;;;;4958698;28;19949;-63
2022/01/21 13:11:33;;;;;;;;;;;9.20;32.00;;;;;;4972844;28;19919;-64
2022/01/21 13:14:23;;;;;;;;;;;9.40;32.50;;;;;;4958100;28;19914;-64
2022/01/21 13:16:53;;;;;;;;;;;9.30;31.30;;;;;;4958521;28;19922;-62
2022/01/21 13:19:19;;;;;;;;;;;9.20;32.20;;;;;;4972782;28;20005;-63
2022/01/21 13:21:46;;;;;;;;;;;9.20;31.30;;;;;;4957837;28;20005;-63
2022/01/21 13:24:25;;;;;;;;;;;9.30;31.60;;;;;;4957928;28;20002;-62
2022/01/21 13:26:52;;;;;;;;;;;9.30;30.50;;;;;;4958125;28;20021;-63
2022/01/21 13:29:18;;;;;;;;;;;9.30;28.20;;;;;;4957968;28;19911;-63
2022/01/21 13:31:47;;;;;;;;;;;9.20;28.50;;;;;;4958073;28;19915;-62
2022/01/21 13:34:14;;;;;;;;;;;9.30;28.20;;;;;;4958087;28;19970;-64
2022/01/21 13:36:43;;;;;;;;;;;9.30;27.80;;;;;;4958189;28;19970;-68
2022/01/21 13:39:27;;;;;;;;;;;9.30;27.50;;;;;;4957993;29;19933;-64
2022/01/21 13:41:55;;;;;;;;;;;9.30;27.70;;;;;;4960608;28;20283;-64
2022/01/21 13:44:28;;;;;;;;;;;9.20;27.80;;;;;;4961562;28;19918;-62
2022/01/21 13:46:54;;;;;;;;;;;9.20;27.20;;;;;;4962778;28;19914;-63
2022/01/21 13:49:24;;;;;;;;;;;9.20;27.90;;;;;;4961844;28;19911;-63
2022/01/21 13:51:58;;;;;;;;;;;9.40;27.50;;;;;;4962192;28;19933;-62
2022/01/21 13:54:37;;;;;;;;;;;9.20;27.20;;;;;;4981767;28;20350;-68
2022/01/21 13:57:04;;;;;;;;;;;9.10;27.10;;;;;;4978754;28;19924;-64
2022/01/21 13:59:30;;;;;;;;;;;9.20;26.90;;;;;;4978219;28;19941;-68
2022/01/21 14:02:03;;;;;;;;;;;9.00;27.50;;;;;;4977786;28;19933;-64
2022/01/21 14:04:29;;;;;;;;;;;9.00;27.30;;;;;;4976286;28;19910;-68
2022/01/21 14:06:54;;;;;;;;;;;9.00;26.70;;;;;;4976780;28;20460;-71
2022/01/21 14:09:23;;;;;;;;;;;9.00;26.90;;;;;;4976911;28;19957;-66
2022/01/21 14:11:49;;;;;;;;;;;9.20;27.40;;;;;;4976588;28;19918;-63
2022/01/21 14:14:16;;;;;;;;;;;9.30;27.00;;;;;;4974507;28;19911;-62
2022/01/21 14:16:46;;;;;;;;;;;9.10;28.60;;;;;;4975978;28;19910;-64
2022/01/21 14:19:17;;;;;;;;;;;9.10;29.00;;;;;;4974361;28;19918;-72
2022/01/21 14:21:47;;;;;;;;;;;9.40;28.30;;;;;;4975420;28;19921;-66
2022/01/21 14:24:13;;;;;;;;;;;9.40;28.60;;;;;;4972273;28;19988;-70
2022/01/21 14:26:41;;;;;;;;;;;9.40;29.30;;;;;;4975942;28;20373;-70
2022/01/21 14:29:07;;;;;;;;;;;9.20;28.40;;;;;;4987541;28;19941;-68
2022/01/21 14:31:41;;;;;;;;;;;9.00;29.10;;;;;;4992653;28;19916;-64
2022/01/21 14:34:10;;;;;;;;;;;8.90;29.70;;;;;;4981994;28;19918;-64
2022/01/21 14:36:36;;;;;;;;;;;9.00;30.10;;;;;;4975831;28;19914;-64
2022/01/21 14:39:15;;;;;;;;;;;9.20;29.50;;;;;;4976007;28;19936;-68
2022/01/21 14:41:45;;;;;;;;;;;9.10;29.50;;;;;;4975367;28;19914;-69
2022/01/21 14:44:12;;;;;;;;;;;9.10;29.00;;;;;;4974146;28;19932;-68
2022/01/21 14:46:37;;;;;;;;;;;9.10;29.50;;;;;;4974312;28;19964;-69
2022/01/21 14:49:07;;;;;;;;;;;9.10;29.10;;;;;;4975780;28;19910;-64
2022/01/21 14:51:34;;;;;;;;;;;9.10;29.70;;;;;;4973302;28;19914;-67
2022/01/21 14:54:09;;;;;;;;;;;9.20;29.40;;;;;;4975483;28;19918;-65
2022/01/21 14:56:34;;;;;;;;;;;9.30;29.40;;;;;;4975760;28;19917;-65
2022/01/21 14:59:15;;;;;;;;;;;9.40;29.80;;;;;;4975364;28;19911;-66
2022/01/21 15:01:57;;;;;;;;;;;9.30;30.60;;;;;;4974702;28;20459;-68
2022/01/21 15:04:23;;;;;;;;;;;9.10;30.00;;;;;;4974365;28;20445;-70
2022/01/21 15:06:49;;;;;;;;;;;9.00;31.90;;;;;;4975013;28;19930;-68
2022/01/21 15:09:27;;;;;;;;;;;8.90;31.60;;;;;;4974873;28;19918;-69
2022/01/21 15:11:57;;;;;;;;;;;9.00;31.30;;;;;;4974185;28;19973;-66
2022/01/21 15:14:42;;;;;;;;;;;9.00;31.50;;;;;;4974691;28;19953;-68
2022/01/21 15:17:08;;;;;;;;;;;8.80;33.70;;;;;;4974824;28;19921;-75
2022/01/21 15:19:34;;;;;;;;;;;8.80;34.80;;;;;;4975938;28;19914;-71
2022/01/21 15:22:00;;;;;;;;;;;8.80;31.50;;;;;;4973323;28;19914;-71
2022/01/21 15:24:26;;;;;;;;;;;8.80;32.00;;;;;;4976351;28;19910;-77
2022/01/21 15:26:52;;;;;;;;;;;8.80;31.30;;;;;;5006503;28;20281;-70